sensor_id;sensor_type;location;lat;lon;timestamp;P1;durP1;ratioP1;P2;durP2;ratioP2
36817;SDS011;22761;51.542;16.450;2024-03-02T00:01:36;52.80;;;36.40;;
36817;SDS011;22761;51.542;16.450;2024-03-02T00:04:05;54.00;;;35.30;;
36817;SDS011;22761;51.542;16.450;2024-03-02T00:06:34;52.60;;;35.30;;
36817;SDS011;22761;51.542;16.450;2024-03-02T00:09:03;54.20;;;34.40;;
36817;SDS011;22761;51.542;16.450;2024-03-02T00:11:34;52.40;;;35.70;;
36817;SDS011;22761;51.542;16.450;2024-03-02T00:14:03;52.80;;;35.30;;
36817;SDS011;22761;51.542;16.450;2024-03-02T00:16:32;54.70;;;36.00;;
36817;SDS011;22761;51.542;16.450;2024-03-02T00:19:03;50.30;;;34.00;;
36817;SDS011;22761;51.542;16.450;2024-03-02T00:21:34;57.30;;;35.60;;
36817;SDS011;22761;51.542;16.450;2024-03-02T00:24:46;49.80;;;35.20;;
36817;SDS011;22761;51.542;16.450;2024-03-02T00:27:01;53.20;;;35.10;;
36817;SDS011;22761;51.542;16.450;2024-03-02T00:29:31;48.40;;;33.60;;
36817;SDS011;22761;51.542;16.450;2024-03-02T00:32:00;51.70;;;35.70;;
36817;SDS011;22761;51.542;16.450;2024-03-02T00:34:28;60.40;;;37.00;;
36817;SDS011;22761;51.542;16.450;2024-03-02T00:36:57;61.80;;;38.30;;
36817;SDS011;22761;51.542;16.450;2024-03-02T00:39:27;56.20;;;37.90;;
36817;SDS011;22761;51.542;16.450;2024-03-02T00:41:56;61.80;;;39.90;;
36817;SDS011;22761;51.542;16.450;2024-03-02T00:44:25;57.50;;;39.80;;
36817;SDS011;22761;51.542;16.450;2024-03-02T00:47:02;60.90;;;39.90;;
36817;SDS011;22761;51.542;16.450;2024-03-02T00:49:30;62.70;;;40.40;;
36817;SDS011;22761;51.542;16.450;2024-03-02T00:51:59;60.10;;;40.70;;
36817;SDS011;22761;51.542;16.450;2024-03-02T00:54:27;59.30;;;40.60;;
36817;SDS011;22761;51.542;16.450;2024-03-02T00:56:56;62.20;;;41.90;;
36817;SDS011;22761;51.542;16.450;2024-03-02T00:59:26;61.30;;;40.70;;
36817;SDS011;22761;51.542;16.450;2024-03-02T01:01:54;55.80;;;38.70;;
36817;SDS011;22761;51.542;16.450;2024-03-02T01:04:24;66.10;;;43.70;;
36817;SDS011;22761;51.542;16.450;2024-03-02T01:06:52;68.90;;;43.50;;
36817;SDS011;22761;51.542;16.450;2024-03-02T01:09:21;61.50;;;41.60;;
36817;SDS011;22761;51.542;16.450;2024-03-02T01:11:49;67.20;;;44.00;;
36817;SDS011;22761;51.542;16.450;2024-03-02T01:14:17;64.00;;;44.30;;
36817;SDS011;22761;51.542;16.450;2024-03-02T01:16:45;64.00;;;43.00;;
36817;SDS011;22761;51.542;16.450;2024-03-02T01:19:14;69.40;;;44.80;;
36817;SDS011;22761;51.542;16.450;2024-03-02T01:21:43;66.30;;;45.40;;
36817;SDS011;22761;51.542;16.450;2024-03-02T01:24:11;68.00;;;43.70;;
36817;SDS011;22761;51.542;16.450;2024-03-02T01:26:41;65.50;;;44.00;;
36817;SDS011;22761;51.542;16.450;2024-03-02T01:29:09;66.80;;;43.70;;
36817;SDS011;22761;51.542;16.450;2024-03-02T01:31:37;63.90;;;43.30;;
36817;SDS011;22761;51.542;16.450;2024-03-02T01:34:07;74.00;;;46.20;;
36817;SDS011;22761;51.542;16.450;2024-03-02T01:36:36;67.50;;;46.00;;
36817;SDS011;22761;51.542;16.450;2024-03-02T01:39:04;68.50;;;45.20;;
36817;SDS011;22761;51.542;16.450;2024-03-02T01:41:36;73.00;;;48.60;;
36817;SDS011;22761;51.542;16.450;2024-03-02T01:44:05;69.70;;;48.80;;
36817;SDS011;22761;51.542;16.450;2024-03-02T01:46:33;70.60;;;46.10;;
36817;SDS011;22761;51.542;16.450;2024-03-02T01:49:02;69.50;;;46.50;;
36817;SDS011;22761;51.542;16.450;2024-03-02T01:51:31;79.70;;;49.00;;
36817;SDS011;22761;51.542;16.450;2024-03-02T01:53:59;71.40;;;47.00;;
36817;SDS011;22761;51.542;16.450;2024-03-02T01:56:27;72.20;;;48.00;;
36817;SDS011;22761;51.542;16.450;2024-03-02T01:58:55;80.10;;;50.90;;
36817;SDS011;22761;51.542;16.450;2024-03-02T02:01:23;69.60;;;48.40;;
36817;SDS011;22761;51.542;16.450;2024-03-02T02:03:52;77.00;;;50.40;;
36817;SDS011;22761;51.542;16.450;2024-03-02T02:06:20;75.90;;;48.70;;
36817;SDS011;22761;51.542;16.450;2024-03-02T02:08:49;79.60;;;50.30;;
36817;SDS011;22761;51.542;16.450;2024-03-02T02:11:17;72.60;;;50.30;;
36817;SDS011;22761;51.542;16.450;2024-03-02T02:13:46;74.60;;;48.00;;
36817;SDS011;22761;51.542;16.450;2024-03-02T02:16:14;71.60;;;47.20;;
36817;SDS011;22761;51.542;16.450;2024-03-02T02:18:42;81.00;;;50.00;;
36817;SDS011;22761;51.542;16.450;2024-03-02T02:21:10;75.20;;;49.30;;
36817;SDS011;22761;51.542;16.450;2024-03-02T02:23:39;80.90;;;50.10;;
36817;SDS011;22761;51.542;16.450;2024-03-02T02:26:07;77.20;;;49.00;;
36817;SDS011;22761;51.542;16.450;2024-03-02T02:28:35;74.60;;;48.80;;
36817;SDS011;22761;51.542;16.450;2024-03-02T02:31:03;73.50;;;47.20;;
36817;SDS011;22761;51.542;16.450;2024-03-02T02:33:32;79.60;;;49.60;;
36817;SDS011;22761;51.542;16.450;2024-03-02T02:36:00;71.30;;;49.70;;
36817;SDS011;22761;51.542;16.450;2024-03-02T02:38:28;76.60;;;50.20;;
36817;SDS011;22761;51.542;16.450;2024-03-02T02:40:57;78.70;;;49.70;;
36817;SDS011;22761;51.542;16.450;2024-03-02T02:43:25;76.60;;;49.90;;
36817;SDS011;22761;51.542;16.450;2024-03-02T02:45:54;81.00;;;50.50;;
36817;SDS011;22761;51.542;16.450;2024-03-02T02:48:22;75.10;;;48.30;;
36817;SDS011;22761;51.542;16.450;2024-03-02T02:50:50;78.10;;;49.10;;
36817;SDS011;22761;51.542;16.450;2024-03-02T02:53:19;76.70;;;49.50;;
36817;SDS011;22761;51.542;16.450;2024-03-02T02:55:47;75.60;;;49.30;;
36817;SDS011;22761;51.542;16.450;2024-03-02T02:58:15;76.30;;;51.80;;
36817;SDS011;22761;51.542;16.450;2024-03-02T03:00:43;79.60;;;49.10;;
36817;SDS011;22761;51.542;16.450;2024-03-02T03:03:12;74.20;;;49.60;;
36817;SDS011;22761;51.542;16.450;2024-03-02T03:05:40;72.30;;;49.60;;
36817;SDS011;22761;51.542;16.450;2024-03-02T03:08:08;72.00;;;49.50;;
36817;SDS011;22761;51.542;16.450;2024-03-02T03:10:36;75.60;;;48.90;;
36817;SDS011;22761;51.542;16.450;2024-03-02T03:13:04;76.10;;;49.40;;
36817;SDS011;22761;51.542;16.450;2024-03-02T03:15:36;70.60;;;48.10;;
36817;SDS011;22761;51.542;16.450;2024-03-02T03:18:04;74.70;;;48.00;;
36817;SDS011;22761;51.542;16.450;2024-03-02T03:20:33;73.10;;;47.90;;
36817;SDS011;22761;51.542;16.450;2024-03-02T03:23:01;82.50;;;51.80;;
36817;SDS011;22761;51.542;16.450;2024-03-02T03:25:31;77.70;;;48.80;;
36817;SDS011;22761;51.542;16.450;2024-03-02T03:27:59;77.60;;;52.00;;
36817;SDS011;22761;51.542;16.450;2024-03-02T03:30:29;79.50;;;51.60;;
36817;SDS011;22761;51.542;16.450;2024-03-02T03:32:57;79.90;;;50.40;;
36817;SDS011;22761;51.542;16.450;2024-03-02T03:35:25;78.10;;;51.10;;
36817;SDS011;22761;51.542;16.450;2024-03-02T03:37:54;78.20;;;50.60;;
36817;SDS011;22761;51.542;16.450;2024-03-02T03:40:22;77.90;;;50.20;;
36817;SDS011;22761;51.542;16.450;2024-03-02T03:42:50;81.20;;;50.90;;
36817;SDS011;22761;51.542;16.450;2024-03-02T03:45:19;77.00;;;50.50;;
36817;SDS011;22761;51.542;16.450;2024-03-02T03:47:48;72.80;;;48.80;;
36817;SDS011;22761;51.542;16.450;2024-03-02T03:50:16;78.20;;;50.80;;
36817;SDS011;22761;51.542;16.450;2024-03-02T03:52:44;78.30;;;50.30;;
36817;SDS011;22761;51.542;16.450;2024-03-02T03:55:12;79.90;;;50.40;;
36817;SDS011;22761;51.542;16.450;2024-03-02T03:57:41;83.20;;;50.40;;
36817;SDS011;22761;51.542;16.450;2024-03-02T04:00:10;79.60;;;51.10;;
36817;SDS011;22761;51.542;16.450;2024-03-02T04:02:39;78.30;;;50.80;;
36817;SDS011;22761;51.542;16.450;2024-03-02T04:05:07;77.20;;;49.90;;
36817;SDS011;22761;51.542;16.450;2024-03-02T04:07:39;78.90;;;49.60;;
36817;SDS011;22761;51.542;16.450;2024-03-02T04:10:09;75.10;;;50.40;;
36817;SDS011;22761;51.542;16.450;2024-03-02T04:12:38;74.40;;;50.30;;
36817;SDS011;22761;51.542;16.450;2024-03-02T04:15:07;74.70;;;49.70;;
36817;SDS011;22761;51.542;16.450;2024-03-02T04:17:36;82.80;;;50.50;;
36817;SDS011;22761;51.542;16.450;2024-03-02T04:20:05;80.90;;;52.60;;
36817;SDS011;22761;51.542;16.450;2024-03-02T04:22:34;77.70;;;51.30;;
36817;SDS011;22761;51.542;16.450;2024-03-02T04:25:04;76.90;;;50.60;;
36817;SDS011;22761;51.542;16.450;2024-03-02T04:27:35;78.50;;;51.00;;
36817;SDS011;22761;51.542;16.450;2024-03-02T04:30:04;77.20;;;50.00;;
36817;SDS011;22761;51.542;16.450;2024-03-02T04:32:33;77.30;;;49.30;;
36817;SDS011;22761;51.542;16.450;2024-03-02T04:35:02;77.30;;;51.30;;
36817;SDS011;22761;51.542;16.450;2024-03-02T04:37:31;82.30;;;52.20;;
36817;SDS011;22761;51.542;16.450;2024-03-02T04:40:01;77.10;;;50.70;;
36817;SDS011;22761;51.542;16.450;2024-03-02T04:42:29;77.10;;;50.50;;
36817;SDS011;22761;51.542;16.450;2024-03-02T04:44:57;74.00;;;48.60;;
36817;SDS011;22761;51.542;16.450;2024-03-02T04:47:26;74.30;;;50.40;;
36817;SDS011;22761;51.542;16.450;2024-03-02T04:49:54;80.60;;;50.80;;
36817;SDS011;22761;51.542;16.450;2024-03-02T04:52:22;75.60;;;49.30;;
36817;SDS011;22761;51.542;16.450;2024-03-02T04:54:50;78.00;;;49.20;;
36817;SDS011;22761;51.542;16.450;2024-03-02T04:57:37;73.90;;;47.90;;
36817;SDS011;22761;51.542;16.450;2024-03-02T05:00:06;74.10;;;48.20;;
36817;SDS011;22761;51.542;16.450;2024-03-02T05:02:36;73.90;;;46.30;;
36817;SDS011;22761;51.542;16.450;2024-03-02T05:05:05;72.50;;;46.80;;
36817;SDS011;22761;51.542;16.450;2024-03-02T05:07:34;74.10;;;47.60;;
36817;SDS011;22761;51.542;16.450;2024-03-02T05:10:02;75.20;;;48.10;;
36817;SDS011;22761;51.542;16.450;2024-03-02T05:12:31;69.30;;;45.50;;
36817;SDS011;22761;51.542;16.450;2024-03-02T05:15:12;70.20;;;45.20;;
36817;SDS011;22761;51.542;16.450;2024-03-02T05:17:41;71.80;;;45.30;;
36817;SDS011;22761;51.542;16.450;2024-03-02T05:20:13;67.10;;;44.00;;
36817;SDS011;22761;51.542;16.450;2024-03-02T05:22:41;69.20;;;45.80;;
36817;SDS011;22761;51.542;16.450;2024-03-02T05:25:10;72.50;;;45.30;;
36817;SDS011;22761;51.542;16.450;2024-03-02T05:27:39;69.20;;;43.30;;
36817;SDS011;22761;51.542;16.450;2024-03-02T05:30:08;68.50;;;42.80;;
36817;SDS011;22761;51.542;16.450;2024-03-02T05:32:37;68.10;;;44.80;;
36817;SDS011;22761;51.542;16.450;2024-03-02T05:35:05;68.40;;;44.90;;
36817;SDS011;22761;51.542;16.450;2024-03-02T05:37:34;66.80;;;43.60;;
36817;SDS011;22761;51.542;16.450;2024-03-02T05:40:02;66.40;;;43.10;;
36817;SDS011;22761;51.542;16.450;2024-03-02T05:42:31;70.20;;;43.40;;
36817;SDS011;22761;51.542;16.450;2024-03-02T05:44:59;66.90;;;43.50;;
36817;SDS011;22761;51.542;16.450;2024-03-02T05:47:27;66.00;;;41.80;;
36817;SDS011;22761;51.542;16.450;2024-03-02T05:49:56;66.00;;;42.50;;
36817;SDS011;22761;51.542;16.450;2024-03-02T05:52:24;71.30;;;44.80;;
36817;SDS011;22761;51.542;16.450;2024-03-02T05:54:52;64.30;;;42.10;;
36817;SDS011;22761;51.542;16.450;2024-03-02T05:57:21;63.90;;;42.70;;
36817;SDS011;22761;51.542;16.450;2024-03-02T06:00:08;66.00;;;41.70;;
36817;SDS011;22761;51.542;16.450;2024-03-02T06:02:40;65.20;;;41.40;;
36817;SDS011;22761;51.542;16.450;2024-03-02T06:05:11;63.30;;;41.50;;
36817;SDS011;22761;51.542;16.450;2024-03-02T06:07:39;66.50;;;43.80;;
36817;SDS011;22761;51.542;16.450;2024-03-02T06:10:07;68.50;;;43.60;;
36817;SDS011;22761;51.542;16.450;2024-03-02T06:12:41;66.20;;;42.80;;
36817;SDS011;22761;51.542;16.450;2024-03-02T06:15:09;67.40;;;42.80;;
36817;SDS011;22761;51.542;16.450;2024-03-02T06:17:39;74.90;;;44.80;;
36817;SDS011;22761;51.542;16.450;2024-03-02T06:20:07;67.10;;;42.10;;
36817;SDS011;22761;51.542;16.450;2024-03-02T06:22:36;67.30;;;41.60;;
36817;SDS011;22761;51.542;16.450;2024-03-02T06:25:05;63.50;;;41.40;;
36817;SDS011;22761;51.542;16.450;2024-03-02T06:27:34;65.70;;;42.00;;
36817;SDS011;22761;51.542;16.450;2024-03-02T06:30:02;63.00;;;41.70;;
36817;SDS011;22761;51.542;16.450;2024-03-02T06:32:32;65.80;;;41.70;;
36817;SDS011;22761;51.542;16.450;2024-03-02T06:35:00;63.60;;;42.20;;
36817;SDS011;22761;51.542;16.450;2024-03-02T06:37:29;64.90;;;40.90;;
36817;SDS011;22761;51.542;16.450;2024-03-02T06:39:57;64.50;;;41.30;;
36817;SDS011;22761;51.542;16.450;2024-03-02T06:42:26;65.40;;;40.60;;
36817;SDS011;22761;51.542;16.450;2024-03-02T06:44:54;62.90;;;40.50;;
36817;SDS011;22761;51.542;16.450;2024-03-02T06:47:22;64.50;;;40.50;;
36817;SDS011;22761;51.542;16.450;2024-03-02T06:49:50;66.00;;;41.10;;
36817;SDS011;22761;51.542;16.450;2024-03-02T06:52:19;61.40;;;39.30;;
36817;SDS011;22761;51.542;16.450;2024-03-02T06:54:51;63.30;;;40.80;;
36817;SDS011;22761;51.542;16.450;2024-03-02T06:57:20;61.40;;;40.20;;
36817;SDS011;22761;51.542;16.450;2024-03-02T06:59:49;58.90;;;39.50;;
36817;SDS011;22761;51.542;16.450;2024-03-02T07:02:19;62.20;;;39.40;;
36817;SDS011;22761;51.542;16.450;2024-03-02T07:04:48;56.50;;;38.70;;
36817;SDS011;22761;51.542;16.450;2024-03-02T07:07:16;58.10;;;39.10;;
36817;SDS011;22761;51.542;16.450;2024-03-02T07:09:45;57.60;;;38.20;;
36817;SDS011;22761;51.542;16.450;2024-03-02T07:12:13;61.50;;;41.00;;
36817;SDS011;22761;51.542;16.450;2024-03-02T07:14:42;54.90;;;38.60;;
36817;SDS011;22761;51.542;16.450;2024-03-02T07:17:39;58.00;;;38.10;;
36817;SDS011;22761;51.542;16.450;2024-03-02T07:20:08;60.50;;;39.10;;
36817;SDS011;22761;51.542;16.450;2024-03-02T07:22:36;56.30;;;38.30;;
36817;SDS011;22761;51.542;16.450;2024-03-02T07:25:08;56.90;;;37.80;;
36817;SDS011;22761;51.542;16.450;2024-03-02T07:27:57;57.30;;;36.90;;
36817;SDS011;22761;51.542;16.450;2024-03-02T07:30:25;56.60;;;36.90;;
36817;SDS011;22761;51.542;16.450;2024-03-02T07:32:53;57.80;;;39.00;;
36817;SDS011;22761;51.542;16.450;2024-03-02T07:35:22;52.70;;;35.00;;
36817;SDS011;22761;51.542;16.450;2024-03-02T07:37:54;54.30;;;36.70;;
36817;SDS011;22761;51.542;16.450;2024-03-02T07:40:23;53.10;;;35.50;;
36817;SDS011;22761;51.542;16.450;2024-03-02T07:42:52;51.00;;;33.90;;
36817;SDS011;22761;51.542;16.450;2024-03-02T07:45:20;48.70;;;34.20;;
36817;SDS011;22761;51.542;16.450;2024-03-02T07:47:48;51.80;;;35.30;;
36817;SDS011;22761;51.542;16.450;2024-03-02T07:50:18;49.30;;;33.30;;
36817;SDS011;22761;51.542;16.450;2024-03-02T07:52:46;46.40;;;32.50;;
36817;SDS011;22761;51.542;16.450;2024-03-02T07:55:14;48.80;;;32.10;;
36817;SDS011;22761;51.542;16.450;2024-03-02T07:57:42;49.40;;;33.90;;
36817;SDS011;22761;51.542;16.450;2024-03-02T08:00:11;47.60;;;32.00;;
36817;SDS011;22761;51.542;16.450;2024-03-02T08:02:39;50.10;;;33.80;;
36817;SDS011;22761;51.542;16.450;2024-03-02T08:05:08;47.60;;;31.80;;
36817;SDS011;22761;51.542;16.450;2024-03-02T08:07:36;49.60;;;32.00;;
36817;SDS011;22761;51.542;16.450;2024-03-02T08:10:05;45.00;;;31.20;;
36817;SDS011;22761;51.542;16.450;2024-03-02T08:12:34;42.70;;;29.40;;
36817;SDS011;22761;51.542;16.450;2024-03-02T08:15:02;44.20;;;30.80;;
36817;SDS011;22761;51.542;16.450;2024-03-02T08:17:31;47.90;;;31.40;;
36817;SDS011;22761;51.542;16.450;2024-03-02T08:20:04;42.40;;;29.80;;
36817;SDS011;22761;51.542;16.450;2024-03-02T08:22:33;42.30;;;29.00;;
36817;SDS011;22761;51.542;16.450;2024-03-02T08:25:01;41.90;;;29.50;;
36817;SDS011;22761;51.542;16.450;2024-03-02T08:27:30;39.30;;;28.70;;
36817;SDS011;22761;51.542;16.450;2024-03-02T08:30:00;44.70;;;29.50;;
36817;SDS011;22761;51.542;16.450;2024-03-02T08:32:28;39.90;;;29.10;;
36817;SDS011;22761;51.542;16.450;2024-03-02T08:34:57;37.80;;;28.60;;
36817;SDS011;22761;51.542;16.450;2024-03-02T08:37:25;42.20;;;28.20;;
36817;SDS011;22761;51.542;16.450;2024-03-02T08:39:53;38.70;;;27.00;;
36817;SDS011;22761;51.542;16.450;2024-03-02T08:42:21;38.60;;;27.60;;
36817;SDS011;22761;51.542;16.450;2024-03-02T08:44:50;43.00;;;28.90;;
36817;SDS011;22761;51.542;16.450;2024-03-02T08:47:18;41.20;;;27.80;;
36817;SDS011;22761;51.542;16.450;2024-03-02T08:49:46;37.20;;;27.60;;
36817;SDS011;22761;51.542;16.450;2024-03-02T08:52:14;37.40;;;27.60;;
36817;SDS011;22761;51.542;16.450;2024-03-02T08:54:42;39.00;;;28.10;;
36817;SDS011;22761;51.542;16.450;2024-03-02T08:57:10;40.40;;;27.90;;
36817;SDS011;22761;51.542;16.450;2024-03-02T08:59:39;41.00;;;27.60;;
36817;SDS011;22761;51.542;16.450;2024-03-02T09:02:07;42.40;;;27.20;;
36817;SDS011;22761;51.542;16.450;2024-03-02T09:04:35;39.20;;;27.30;;
36817;SDS011;22761;51.542;16.450;2024-03-02T09:07:03;36.70;;;27.20;;
36817;SDS011;22761;51.542;16.450;2024-03-02T09:09:32;38.10;;;26.60;;
36817;SDS011;22761;51.542;16.450;2024-03-02T09:12:00;34.60;;;25.40;;
36817;SDS011;22761;51.542;16.450;2024-03-02T09:14:28;37.80;;;26.70;;
36817;SDS011;22761;51.542;16.450;2024-03-02T09:16:57;58.70;;;36.40;;
36817;SDS011;22761;51.542;16.450;2024-03-02T09:19:25;108.70;;;57.80;;
36817;SDS011;22761;51.542;16.450;2024-03-02T09:21:53;128.00;;;67.50;;
36817;SDS011;22761;51.542;16.450;2024-03-02T09:24:23;135.20;;;70.60;;
36817;SDS011;22761;51.542;16.450;2024-03-02T09:26:52;92.50;;;51.10;;
36817;SDS011;22761;51.542;16.450;2024-03-02T09:29:20;55.50;;;36.00;;
36817;SDS011;22761;51.542;16.450;2024-03-02T09:31:48;111.40;;;64.90;;
36817;SDS011;22761;51.542;16.450;2024-03-02T09:34:18;113.80;;;65.10;;
36817;SDS011;22761;51.542;16.450;2024-03-02T09:36:47;90.60;;;53.40;;
36817;SDS011;22761;51.542;16.450;2024-03-02T09:39:15;141.90;;;77.30;;
36817;SDS011;22761;51.542;16.450;2024-03-02T09:41:43;110.50;;;63.20;;
36817;SDS011;22761;51.542;16.450;2024-03-02T09:44:12;89.10;;;43.40;;
36817;SDS011;22761;51.542;16.450;2024-03-02T09:46:40;55.10;;;33.80;;
36817;SDS011;22761;51.542;16.450;2024-03-02T09:49:12;46.20;;;28.20;;
36817;SDS011;22761;51.542;16.450;2024-03-02T09:51:40;46.00;;;29.70;;
36817;SDS011;22761;51.542;16.450;2024-03-02T09:54:15;43.80;;;29.50;;
36817;SDS011;22761;51.542;16.450;2024-03-02T09:56:50;42.90;;;29.20;;
36817;SDS011;22761;51.542;16.450;2024-03-02T09:59:19;42.30;;;28.80;;
36817;SDS011;22761;51.542;16.450;2024-03-02T10:01:58;40.10;;;28.50;;
36817;SDS011;22761;51.542;16.450;2024-03-02T10:04:28;37.20;;;27.10;;
36817;SDS011;22761;51.542;16.450;2024-03-02T10:07:18;36.90;;;28.20;;
36817;SDS011;22761;51.542;16.450;2024-03-02T10:09:49;33.50;;;25.50;;
36817;SDS011;22761;51.542;16.450;2024-03-02T10:12:19;32.80;;;25.90;;
36817;SDS011;22761;51.542;16.450;2024-03-02T10:14:48;35.90;;;27.40;;
36817;SDS011;22761;51.542;16.450;2024-03-02T10:17:19;31.60;;;25.70;;
36817;SDS011;22761;51.542;16.450;2024-03-02T10:19:47;33.00;;;25.70;;
36817;SDS011;22761;51.542;16.450;2024-03-02T10:22:15;36.20;;;25.00;;
36817;SDS011;22761;51.542;16.450;2024-03-02T10:24:44;28.50;;;23.50;;
36817;SDS011;22761;51.542;16.450;2024-03-02T10:27:17;30.40;;;23.70;;
36817;SDS011;22761;51.542;16.450;2024-03-02T10:29:50;29.40;;;23.40;;
36817;SDS011;22761;51.542;16.450;2024-03-02T10:32:19;34.40;;;24.20;;
36817;SDS011;22761;51.542;16.450;2024-03-02T10:34:50;29.60;;;23.40;;
36817;SDS011;22761;51.542;16.450;2024-03-02T10:37:18;29.70;;;22.90;;
36817;SDS011;22761;51.542;16.450;2024-03-02T10:39:49;32.10;;;25.40;;
36817;SDS011;22761;51.542;16.450;2024-03-02T10:42:17;28.20;;;22.50;;
36817;SDS011;22761;51.542;16.450;2024-03-02T10:44:47;29.50;;;21.90;;
36817;SDS011;22761;51.542;16.450;2024-03-02T10:47:16;30.30;;;23.30;;
36817;SDS011;22761;51.542;16.450;2024-03-02T10:49:47;29.90;;;23.50;;
36817;SDS011;22761;51.542;16.450;2024-03-02T10:52:19;30.80;;;24.80;;
36817;SDS011;22761;51.542;16.450;2024-03-02T10:54:47;30.00;;;21.80;;
36817;SDS011;22761;51.542;16.450;2024-03-02T10:57:16;26.20;;;20.80;;
36817;SDS011;22761;51.542;16.450;2024-03-02T10:59:56;27.00;;;21.00;;
36817;SDS011;22761;51.542;16.450;2024-03-02T11:02:25;25.00;;;20.40;;
36817;SDS011;22761;51.542;16.450;2024-03-02T11:07:24;25.90;;;19.00;;
36817;SDS011;22761;51.542;16.450;2024-03-02T11:10:01;26.80;;;20.90;;
36817;SDS011;22761;51.542;16.450;2024-03-02T11:13:21;26.40;;;19.70;;
36817;SDS011;22761;51.542;16.450;2024-03-02T11:15:30;27.70;;;20.60;;
36817;SDS011;22761;51.542;16.450;2024-03-02T11:17:58;26.40;;;19.70;;
36817;SDS011;22761;51.542;16.450;2024-03-02T11:20:27;27.50;;;20.50;;
36817;SDS011;22761;51.542;16.450;2024-03-02T11:22:56;26.30;;;17.80;;
36817;SDS011;22761;51.542;16.450;2024-03-02T11:25:27;24.90;;;19.70;;
36817;SDS011;22761;51.542;16.450;2024-03-02T11:33:03;21.70;;;16.80;;
36817;SDS011;22761;51.542;16.450;2024-03-02T11:35:43;22.90;;;16.90;;
36817;SDS011;22761;51.542;16.450;2024-03-02T11:38:17;24.70;;;17.10;;
36817;SDS011;22761;51.542;16.450;2024-03-02T11:40:46;19.70;;;15.50;;
36817;SDS011;22761;51.542;16.450;2024-03-02T11:43:14;20.70;;;16.00;;
36817;SDS011;22761;51.542;16.450;2024-03-02T11:45:43;25.30;;;17.20;;
36817;SDS011;22761;51.542;16.450;2024-03-02T11:48:15;21.60;;;17.30;;
36817;SDS011;22761;51.542;16.450;2024-03-02T11:50:48;22.60;;;18.30;;
36817;SDS011;22761;51.542;16.450;2024-03-02T11:53:19;25.50;;;17.50;;
36817;SDS011;22761;51.542;16.450;2024-03-02T11:55:48;26.40;;;17.50;;
36817;SDS011;22761;51.542;16.450;2024-03-02T11:58:17;25.70;;;17.00;;
36817;SDS011;22761;51.542;16.450;2024-03-02T12:00:51;21.10;;;16.70;;
36817;SDS011;22761;51.542;16.450;2024-03-02T12:03:24;21.30;;;17.20;;
36817;SDS011;22761;51.542;16.450;2024-03-02T12:05:54;20.00;;;15.90;;
36817;SDS011;22761;51.542;16.450;2024-03-02T12:08:23;20.20;;;15.90;;
36817;SDS011;22761;51.542;16.450;2024-03-02T12:10:59;21.20;;;16.00;;
36817;SDS011;22761;51.542;16.450;2024-03-02T12:13:30;22.60;;;15.70;;
36817;SDS011;22761;51.542;16.450;2024-03-02T12:15:59;20.10;;;15.90;;
36817;SDS011;22761;51.542;16.450;2024-03-02T12:18:28;20.00;;;15.90;;
36817;SDS011;22761;51.542;16.450;2024-03-02T12:20:56;22.50;;;16.00;;
36817;SDS011;22761;51.542;16.450;2024-03-02T12:23:27;25.60;;;16.90;;
36817;SDS011;22761;51.542;16.450;2024-03-02T12:25:55;23.70;;;17.10;;
36817;SDS011;22761;51.542;16.450;2024-03-02T12:28:24;21.60;;;16.10;;
36817;SDS011;22761;51.542;16.450;2024-03-02T12:30:53;21.60;;;16.80;;
36817;SDS011;22761;51.542;16.450;2024-03-02T12:33:21;21.70;;;16.10;;
36817;SDS011;22761;51.542;16.450;2024-03-02T12:35:50;20.00;;;16.30;;
36817;SDS011;22761;51.542;16.450;2024-03-02T12:38:19;26.10;;;18.80;;
36817;SDS011;22761;51.542;16.450;2024-03-02T12:40:48;23.60;;;18.30;;
36817;SDS011;22761;51.542;16.450;2024-03-02T12:43:17;22.60;;;17.50;;
36817;SDS011;22761;51.542;16.450;2024-03-02T12:45:46;24.10;;;17.20;;
36817;SDS011;22761;51.542;16.450;2024-03-02T12:48:14;24.40;;;18.10;;
36817;SDS011;22761;51.542;16.450;2024-03-02T12:50:43;22.90;;;17.60;;
36817;SDS011;22761;51.542;16.450;2024-03-02T12:53:15;25.60;;;18.40;;
36817;SDS011;22761;51.542;16.450;2024-03-02T12:55:44;29.50;;;17.70;;
36817;SDS011;22761;51.542;16.450;2024-03-02T12:58:16;22.50;;;17.20;;
36817;SDS011;22761;51.542;16.450;2024-03-02T13:00:46;22.40;;;16.20;;
36817;SDS011;22761;51.542;16.450;2024-03-02T13:03:17;21.80;;;15.90;;
36817;SDS011;22761;51.542;16.450;2024-03-02T13:05:48;19.00;;;15.00;;
36817;SDS011;22761;51.542;16.450;2024-03-02T13:10:46;20.80;;;15.50;;
36817;SDS011;22761;51.542;16.450;2024-03-02T13:13:14;24.20;;;17.60;;
36817;SDS011;22761;51.542;16.450;2024-03-02T13:15:42;19.30;;;16.50;;
36817;SDS011;22761;51.542;16.450;2024-03-02T13:18:13;20.70;;;16.50;;
36817;SDS011;22761;51.542;16.450;2024-03-02T13:20:41;20.10;;;16.40;;
36817;SDS011;22761;51.542;16.450;2024-03-02T13:23:09;22.60;;;17.00;;
36817;SDS011;22761;51.542;16.450;2024-03-02T13:25:38;22.80;;;17.70;;
36817;SDS011;22761;51.542;16.450;2024-03-02T13:28:06;24.30;;;16.90;;
36817;SDS011;22761;51.542;16.450;2024-03-02T13:30:35;24.20;;;17.90;;
36817;SDS011;22761;51.542;16.450;2024-03-02T13:33:04;24.90;;;18.30;;
36817;SDS011;22761;51.542;16.450;2024-03-02T13:35:32;25.30;;;19.80;;
36817;SDS011;22761;51.542;16.450;2024-03-02T13:38:00;26.30;;;20.80;;
36817;SDS011;22761;51.542;16.450;2024-03-02T13:40:29;23.80;;;19.80;;
36817;SDS011;22761;51.542;16.450;2024-03-02T13:42:58;28.80;;;19.10;;
36817;SDS011;22761;51.542;16.450;2024-03-02T13:45:26;33.30;;;27.30;;
36817;SDS011;22761;51.542;16.450;2024-03-02T13:47:56;44.40;;;33.60;;
36817;SDS011;22761;51.542;16.450;2024-03-02T13:50:24;30.00;;;22.70;;
36817;SDS011;22761;51.542;16.450;2024-03-02T13:52:52;27.50;;;20.20;;
36817;SDS011;22761;51.542;16.450;2024-03-02T13:55:20;30.10;;;21.10;;
36817;SDS011;22761;51.542;16.450;2024-03-02T13:57:48;26.30;;;20.20;;
36817;SDS011;22761;51.542;16.450;2024-03-02T14:00:18;32.20;;;20.30;;
36817;SDS011;22761;51.542;16.450;2024-03-02T14:02:46;25.60;;;18.60;;
36817;SDS011;22761;51.542;16.450;2024-03-02T14:05:17;27.50;;;19.30;;
36817;SDS011;22761;51.542;16.450;2024-03-02T14:07:47;27.00;;;18.30;;
36817;SDS011;22761;51.542;16.450;2024-03-02T14:10:15;27.50;;;20.30;;
36817;SDS011;22761;51.542;16.450;2024-03-02T14:12:43;36.20;;;27.90;;
36817;SDS011;22761;51.542;16.450;2024-03-02T14:15:12;118.50;;;61.70;;
36817;SDS011;22761;51.542;16.450;2024-03-02T14:17:40;41.20;;;29.00;;
36817;SDS011;22761;51.542;16.450;2024-03-02T14:20:08;112.20;;;84.60;;
36817;SDS011;22761;51.542;16.450;2024-03-02T14:22:41;37.60;;;28.60;;
36817;SDS011;22761;51.542;16.450;2024-03-02T14:25:09;34.50;;;28.80;;
36817;SDS011;22761;51.542;16.450;2024-03-02T14:27:37;105.50;;;28.10;;
36817;SDS011;22761;51.542;16.450;2024-03-02T14:30:10;24.20;;;17.30;;
36817;SDS011;22761;51.542;16.450;2024-03-02T14:32:39;30.30;;;18.10;;